Time;durP1;ratioP1;P1;durP2;ratioP2;P2;SDS_P1;SDS_P2;PMS_P1;PMS_P2;Temp;Humidity;BMP_temperature;BMP_pressure;BME280_temperature;BME280_humidity;BME280_pressure;Samples;Min_cycle;Max_cycle;Signal;HPM_P1;HPM_P2
2021/12/01 00:01:03;;;;;;;119.72;64.40;;;179.70;2252.80;;;;;;5041108;28;20546;-58
2021/12/01 00:03:29;;;;;;;124.13;77.03;;;179.60;2227.20;;;;;;5042426;28;20160;-57
2021/12/01 00:05:55;;;;;;;174.60;109.18;;;179.60;2252.80;;;;;;5039007;28;20064;-58
2021/12/01 00:08:21;;;;;;;174.52;101.15;;;179.60;2252.80;;;;;;5043878;28;20111;-58
2021/12/01 00:10:47;;;;;;;85.13;51.92;;;179.70;2252.80;;;;;;5041308;28;20114;-58
2021/12/01 00:13:19;;;;;;;71.80;44.60;;;179.70;2252.80;;;;;;5041467;28;20440;-60
2021/12/01 00:15:46;;;;;;;76.85;48.08;;;179.70;2201.60;;;;;;5040120;28;20025;-59
2021/12/01 00:18:12;;;;;;;104.78;56.95;;;179.80;2201.60;;;;;;5042835;28;20395;-57
2021/12/01 00:20:38;;;;;;;128.10;73.15;;;179.90;2176.00;;;;;;5044468;28;20037;-58
2021/12/01 00:23:04;;;;;;;56.15;31.83;;;179.90;2201.60;;;;;;5052046;28;20494;-59
2021/12/01 00:25:35;;;;;;;27.23;15.18;;;180.00;2176.00;;;;;;5052294;28;20029;-58
2021/12/01 00:28:01;;;;;;;17.83;9.30;;;180.10;2176.00;;;;;;5052083;28;20541;-59
2021/12/01 00:30:27;;;;;;;50.15;29.08;;;180.10;2176.00;;;;;;5051902;28;20037;-58
2021/12/01 00:32:54;;;;;;;15.82;9.32;;;204.90;2150.40;;;;;;5052362;28;20057;-59
2021/12/01 00:35:21;;;;;;;55.17;26.30;;;204.90;2150.40;;;;;;5052237;28;20043;-58
2021/12/01 00:37:46;;;;;;;19.40;13.15;;;205.10;2099.20;;;;;;5051984;28;20060;-59
2021/12/01 00:40:13;;;;;;;30.38;16.17;;;205.10;2099.20;;;;;;5051963;28;20456;-57
2021/12/01 00:42:40;;;;;;;49.38;27.88;;;205.20;2124.80;;;;;;5051952;28;20025;-58
2021/12/01 00:45:11;;;;;;;45.90;27.63;;;205.40;2099.20;;;;;;5051676;28;20071;-59
2021/12/01 00:47:49;;;;;;;105.18;64.93;;;205.30;2150.40;;;;;;5051633;28;20025;-59
2021/12/01 00:50:22;;;;;;;242.07;154.80;;;205.30;2176.00;;;;;;5051577;28;20116;-59
2021/12/01 00:52:48;;;;;;;89.13;51.65;;;205.00;2252.80;;;;;;5051634;28;20402;-58
2021/12/01 00:55:13;;;;;;;130.82;75.53;;;205.10;2201.60;;;;;;5051555;28;20037;-58
2021/12/01 00:57:39;;;;;;;117.38;71.65;;;205.30;2150.40;;;;;;5051828;28;20059;-57
2021/12/01 01:00:07;;;;;;;130.80;73.95;;;205.20;2227.20;;;;;;5051227;28;20076;-58
2021/12/01 01:02:34;;;;;;;21.05;13.68;;;205.20;2176.00;;;;;;5051590;28;20036;-58
2021/12/01 01:04:59;;;;;;;77.75;41.90;;;205.30;2124.80;;;;;;5051524;28;20087;-57
2021/12/01 01:07:25;;;;;;;34.70;21.13;;;205.50;2073.60;;;;;;5051382;28;20021;-58
2021/12/01 01:09:51;;;;;;;27.48;15.35;;;205.50;2099.20;;;;;;5051459;28;20025;-58
2021/12/01 01:17:57;;;;;;;16.50;9.95;;;205.70;2073.60;;;;;;5051198;28;20032;-60
2021/12/01 01:20:22;;;;;;;12.63;8.60;;;205.70;2124.80;;;;;;5051491;28;20032;-58
2021/12/01 01:22:48;;;;;;;92.53;56.42;;;205.70;2124.80;;;;;;5050747;28;20367;-58
2021/12/01 01:25:14;;;;;;;87.45;52.78;;;205.60;2176.00;;;;;;5051115;28;20112;-58
2021/12/01 01:27:40;;;;;;;195.02;116.20;;;205.30;2227.20;;;;;;5051153;28;20057;-58
2021/12/01 01:30:06;;;;;;;116.18;72.38;;;204.90;2252.80;;;;;;5050793;28;20562;-58
2021/12/01 01:32:35;;;;;;;141.85;86.07;;;205.10;2252.80;;;;;;5050997;28;20033;-59
2021/12/01 01:35:01;;;;;;;231.45;143.80;;;205.20;2252.80;;;;;;5050849;28;20033;-59
2021/12/01 01:37:26;;;;;;;127.85;78.47;;;205.00;2252.80;;;;;;5050718;28;20078;-58
2021/12/01 01:39:52;;;;;;;261.02;155.88;;;204.80;2252.80;;;;;;5051069;28;20036;-58
2021/12/01 01:42:18;;;;;;;209.40;118.80;;;180.00;2252.80;;;;;;5050597;28;20028;-60
2021/12/01 01:44:44;;;;;;;119.53;69.95;;;179.60;2252.80;;;;;;5050636;28;20041;-59
2021/12/01 01:47:11;;;;;;;113.10;64.72;;;179.60;2252.80;;;;;;5050772;28;20100;-60
2021/12/01 01:49:51;;;;;;;158.65;91.40;;;179.80;2252.80;;;;;;5050536;28;20147;-59
2021/12/01 01:52:17;;;;;;;160.95;95.50;;;179.60;2252.80;;;;;;5050426;28;20017;-58
2021/12/01 01:54:43;;;;;;;211.30;130.40;;;179.70;2252.80;;;;;;5050809;28;20024;-60
2021/12/01 01:57:08;;;;;;;288.13;174.73;;;179.70;2252.80;;;;;;5050562;28;20495;-59
2021/12/01 01:59:34;;;;;;;220.82;129.48;;;179.80;2252.80;;;;;;5050046;28;20048;-59
2021/12/01 02:02:01;;;;;;;154.20;91.32;;;179.80;2252.80;;;;;;5050515;28;20032;-59
2021/12/01 02:04:32;;;;;;;153.02;102.13;;;179.90;2252.80;;;;;;5050076;28;20111;-59
2021/12/01 02:06:58;;;;;;;145.98;87.88;;;180.00;2252.80;;;;;;5050223;28;20475;-59
2021/12/01 02:09:24;;;;;;;721.63;397.10;;;180.00;2252.80;;;;;;5050248;28;20100;-59
2021/12/01 02:11:56;;;;;;;357.80;167.35;;;180.00;2252.80;;;;;;5050527;28;20124;-58
2021/12/01 02:14:22;;;;;;;325.65;158.68;;;179.90;2252.80;;;;;;5050475;28;20028;-59
2021/12/01 02:16:49;;;;;;;527.55;283.40;;;180.10;2252.80;;;;;;5050186;28;20028;-59
2021/12/01 02:19:15;;;;;;;416.00;205.63;;;204.80;2252.80;;;;;;5049923;28;20037;-59
2021/12/01 02:21:41;;;;;;;171.80;85.95;;;204.90;2252.80;;;;;;5050272;28;20079;-60
2021/12/01 02:24:10;;;;;;;152.00;96.22;;;205.00;2252.80;;;;;;5049864;28;20479;-59
2021/12/01 02:26:44;;;;;;;182.40;105.85;;;204.90;2252.80;;;;;;5049942;28;20032;-58
2021/12/01 02:29:13;;;;;;;376.65;209.55;;;204.90;2252.80;;;;;;5049857;28;20441;-59
2021/12/01 02:31:40;;;;;;;220.82;120.15;;;204.90;2252.80;;;;;;5050015;28;20033;-58
2021/12/01 02:34:19;;;;;;;331.92;174.18;;;205.00;2252.80;;;;;;5048760;28;20021;-59
2021/12/01 02:36:51;;;;;;;137.43;78.90;;;205.20;2252.80;;;;;;5049861;28;20116;-59
2021/12/01 02:39:18;;;;;;;42.90;22.95;;;205.20;2252.80;;;;;;5049687;28;20017;-59
2021/12/01 02:41:45;;;;;;;18.08;9.75;;;205.30;2252.80;;;;;;5049944;28;20025;-59
2021/12/01 02:44:12;;;;;;;68.15;40.28;;;205.30;2252.80;;;;;;5049708;28;20025;-59
2021/12/01 02:46:39;;;;;;;14.43;8.23;;;205.40;2252.80;;;;;;5048351;28;20123;-59
2021/12/01 02:49:06;;;;;;;22.35;12.95;;;205.40;2252.80;;;;;;5049949;28;20056;-60
2021/12/01 02:51:33;;;;;;;19.00;11.68;;;205.50;2252.80;;;;;;5049940;28;20029;-59
2021/12/01 02:53:59;;;;;;;34.42;22.10;;;205.50;2252.80;;;;;;5049897;28;20025;-60
2021/12/01 02:56:27;;;;;;;29.52;18.42;;;205.50;2252.80;;;;;;5049700;28;20035;-60
2021/12/01 02:58:53;;;;;;;68.20;44.38;;;205.70;2252.80;;;;;;5049630;28;20027;-59
2021/12/01 03:01:22;;;;;;;84.32;53.88;;;205.60;2252.80;;;;;;5049516;28;20045;-59
2021/12/01 03:03:49;;;;;;;74.88;48.63;;;205.30;2252.80;;;;;;5049379;28;20041;-60
2021/12/01 03:06:18;;;;;;;93.20;61.97;;;205.30;2252.80;;;;;;5049526;28;20021;-60
2021/12/01 03:08:46;;;;;;;70.10;45.30;;;205.40;2252.80;;;;;;5049504;28;20035;-60
2021/12/01 03:11:13;;;;;;;34.95;24.80;;;205.50;2252.80;;;;;;5049741;28;20105;-60
2021/12/01 03:13:40;;;;;;;44.08;29.80;;;205.70;2252.80;;;;;;5049576;28;20455;-60
2021/12/01 03:16:06;;;;;;;29.02;18.65;;;205.70;2227.20;;;;;;5049700;28;20430;-59
2021/12/01 03:18:32;;;;;;;16.63;11.30;;;230.40;2227.20;;;;;;5049672;28;20021;-59
2021/12/01 03:20:58;;;;;;;21.08;13.98;;;230.40;2201.60;;;;;;5049274;28;20040;-59
2021/12/01 03:23:25;;;;;;;12.30;7.10;;;230.40;2227.20;;;;;;5049391;28;20021;-60
2021/12/01 03:25:51;;;;;;;11.75;5.10;;;230.50;2227.20;;;;;;5049611;28;20364;-59
2021/12/01 03:28:17;;;;;;;23.73;8.73;;;230.60;2201.60;;;;;;5049292;28;20031;-60
2021/12/01 03:30:44;;;;;;;11.40;5.95;;;230.60;2201.60;;;;;;5049328;28;20546;-59
2021/12/01 03:33:12;;;;;;;13.00;6.65;;;230.60;2201.60;;;;;;5049622;28;20159;-59
2021/12/01 03:35:42;;;;;;;9.80;5.78;;;230.60;2201.60;;;;;;5049319;28;20472;-58
2021/12/01 03:38:08;;;;;;;28.02;16.88;;;230.60;2201.60;;;;;;5049322;28;20104;-59
2021/12/01 03:40:35;;;;;;;26.90;14.43;;;230.40;2252.80;;;;;;5049286;28;20025;-59
2021/12/01 03:43:01;;;;;;;152.55;76.13;;;230.50;2252.80;;;;;;5049313;28;20028;-58
2021/12/01 03:45:27;;;;;;;84.00;52.38;;;230.40;2252.80;;;;;;5049735;28;20388;-59
2021/12/01 03:47:53;;;;;;;134.77;90.80;;;205.50;2252.80;;;;;;5053381;28;20025;-60
2021/12/01 03:50:19;;;;;;;130.82;82.10;;;205.00;2252.80;;;;;;5053110;28;20025;-60
2021/12/01 03:52:45;;;;;;;184.05;109.45;;;180.10;2252.80;;;;;;5052769;28;20021;-59
2021/12/01 03:55:11;;;;;;;157.48;98.28;;;204.90;2252.80;;;;;;5052915;28;20509;-58
2021/12/01 03:57:37;;;;;;;119.47;78.82;;;205.10;2252.80;;;;;;5052609;28;20032;-58
2021/12/01 04:00:09;;;;;;;89.57;52.20;;;205.20;2252.80;;;;;;5052462;28;20092;-58
2021/12/01 04:02:34;;;;;;;54.90;32.95;;;205.30;2252.80;;;;;;5052649;28;20036;-59
2021/12/01 04:05:00;;;;;;;113.10;62.97;;;205.50;2252.80;;;;;;5052674;28;20045;-60
2021/12/01 04:07:26;;;;;;;93.07;59.65;;;205.50;2252.80;;;;;;5052548;28;20053;-58
2021/12/01 04:09:52;;;;;;;44.13;29.98;;;205.50;2252.80;;;;;;5052840;28;20060;-58
2021/12/01 04:12:18;;;;;;;34.40;22.05;;;205.50;2252.80;;;;;;5052334;28;20025;-59
2021/12/01 04:14:45;;;;;;;36.25;18.98;;;205.50;2252.80;;;;;;5052267;28;20123;-60
2021/12/01 04:17:10;;;;;;;38.90;21.70;;;205.60;2252.80;;;;;;5052664;28;20112;-60
2021/12/01 04:19:37;;;;;;;29.58;20.67;;;205.60;2252.80;;;;;;5052198;28;20491;-58
2021/12/01 04:22:03;;;;;;;20.88;11.75;;;205.70;2252.80;;;;;;5052295;28;20061;-58
2021/12/01 04:24:29;;;;;;;25.67;18.58;;;205.70;2252.80;;;;;;5052233;28;20048;-58
2021/12/01 04:26:55;;;;;;;27.33;16.30;;;205.70;2252.80;;;;;;5052001;28;20033;-60
2021/12/01 04:29:21;;;;;;;21.20;12.68;;;205.70;2252.80;;;;;;5052087;28;20040;-59
2021/12/01 04:31:47;;;;;;;27.38;21.27;;;205.60;2252.80;;;;;;5051980;28;20091;-59
2021/12/01 04:34:14;;;;;;;21.38;15.82;;;205.70;2252.80;;;;;;5052262;28;20056;-59
2021/12/01 04:36:42;;;;;;;19.27;13.52;;;230.40;2252.80;;;;;;5052316;28;20391;-59
2021/12/01 04:39:11;;;;;;;62.75;40.38;;;205.70;2252.80;;;;;;5051871;28;20021;-59
2021/12/01 04:41:48;;;;;;;16.17;10.65;;;230.40;2252.80;;;;;;5051911;28;20083;-59
2021/12/01 04:44:14;;;;;;;20.67;14.23;;;230.40;2252.80;;;;;;5051859;28;20029;-59
2021/12/01 04:46:44;;;;;;;32.80;19.90;;;230.40;2252.80;;;;;;5052141;28;20028;-60
2021/12/01 04:49:13;;;;;;;39.53;24.75;;;230.60;2252.80;;;;;;5051918;28;20025;-59
2021/12/01 04:51:44;;;;;;;55.17;34.17;;;230.60;2201.60;;;;;;5051739;28;20056;-59
2021/12/01 04:54:10;;;;;;;44.00;27.88;;;230.70;2176.00;;;;;;5051775;28;20033;-59
2021/12/01 04:56:37;;;;;;;25.02;12.75;;;230.80;2176.00;;;;;;5051067;28;20493;-59
2021/12/01 04:59:04;;;;;;;23.42;13.60;;;230.90;2150.40;;;;;;5050956;28;20395;-60
2021/12/01 05:01:32;;;;;;;43.42;24.90;;;230.90;2150.40;;;;;;5051436;28;20516;-59
2021/12/01 05:03:58;;;;;;;19.50;11.82;;;230.90;2150.40;;;;;;5051515;28;20040;-60
2021/12/01 05:06:24;;;;;;;23.70;15.82;;;230.90;2227.20;;;;;;5050372;28;20025;-60
2021/12/01 05:08:50;;;;;;;29.88;18.90;;;230.90;2176.00;;;;;;5051500;28;20118;-59
2021/12/01 05:11:15;;;;;;;55.80;37.00;;;230.90;2176.00;;;;;;5051308;28;20021;-60
2021/12/01 05:13:41;;;;;;;22.70;16.42;;;230.90;2150.40;;;;;;5050913;28;20033;-60
2021/12/01 05:16:07;;;;;;;28.80;15.63;;;230.90;2176.00;;;;;;5051404;28;20171;-60
2021/12/01 05:18:32;;;;;;;28.70;15.43;;;230.80;2201.60;;;;;;5051378;28;20096;-59
2021/12/01 05:20:58;;;;;;;40.55;27.02;;;231.00;2252.80;;;;;;5051014;28;20489;-58
2021/12/01 05:23:24;;;;;;;149.18;100.30;;;230.80;2252.80;;;;;;5051218;28;20032;-61
2021/12/01 05:25:50;;;;;;;102.72;67.30;;;230.40;2252.80;;;;;;5051222;28;20060;-59
2021/12/01 05:28:16;;;;;;;91.03;56.38;;;205.20;2252.80;;;;;;5050780;28;20071;-59
2021/12/01 05:30:41;;;;;;;72.20;43.95;;;205.10;2252.80;;;;;;5050962;28;20026;-59
2021/12/01 05:33:11;;;;;;;76.47;47.00;;;204.90;2252.80;;;;;;5050808;28;20067;-59
2021/12/01 05:35:37;;;;;;;94.55;58.17;;;205.00;2252.80;;;;;;5050874;28;20021;-60
2021/12/01 05:38:04;;;;;;;139.35;94.07;;;204.90;2252.80;;;;;;5050980;28;20032;-59
2021/12/01 05:40:32;;;;;;;237.65;163.45;;;204.90;2252.80;;;;;;5051037;28;20029;-59
2021/12/01 05:42:58;;;;;;;149.77;104.55;;;204.80;2252.80;;;;;;5050550;28;20124;-60
2021/12/01 05:45:24;;;;;;;80.13;50.60;;;180.10;2252.80;;;;;;5050605;28;20055;-61
2021/12/01 05:47:50;;;;;;;138.43;80.72;;;204.90;2252.80;;;;;;5049246;28;20029;-59
2021/12/01 05:50:16;;;;;;;99.72;64.38;;;204.80;2252.80;;;;;;5050404;28;20025;-59
2021/12/01 05:52:43;;;;;;;100.85;60.42;;;204.80;2252.80;;;;;;5050621;28;20025;-59
2021/12/01 05:55:09;;;;;;;183.18;106.40;;;204.80;2252.80;;;;;;5050361;28;20040;-59
2021/12/01 05:57:35;;;;;;;231.43;132.27;;;204.80;2252.80;;;;;;5050264;28;20170;-61
2021/12/01 06:00:05;;;;;;;66.00;45.28;;;204.90;2252.80;;;;;;5050209;28;20376;-59
2021/12/01 06:02:30;;;;;;;138.75;80.28;;;204.90;2252.80;;;;;;5050382;28;20120;-59
2021/12/01 06:04:56;;;;;;;113.90;66.97;;;205.00;2252.80;;;;;;5048489;28;20127;-59
2021/12/01 06:07:22;;;;;;;167.68;99.40;;;205.00;2252.80;;;;;;5050557;28;20043;-59
2021/12/01 06:09:48;;;;;;;119.72;69.70;;;205.00;2252.80;;;;;;5049888;28;20037;-62
2021/12/01 06:12:14;;;;;;;74.93;46.47;;;205.00;2252.80;;;;;;5050188;28;20028;-59
2021/12/01 06:14:41;;;;;;;105.55;62.38;;;204.80;2252.80;;;;;;5050210;28;20483;-58
2021/12/01 06:17:10;;;;;;;114.57;67.88;;;180.10;2252.80;;;;;;5050050;28;20037;-60
2021/12/01 06:19:36;;;;;;;100.28;63.67;;;204.80;2252.80;;;;;;5050059;28;20107;-59
2021/12/01 06:22:02;;;;;;;76.82;49.78;;;204.80;2252.80;;;;;;5050210;28;20071;-59
2021/12/01 06:24:28;;;;;;;78.07;50.42;;;180.10;2252.80;;;;;;5050167;28;20479;-59
2021/12/01 06:26:54;;;;;;;209.23;119.85;;;180.10;2252.80;;;;;;5049770;28;20021;-58
2021/12/01 06:29:20;;;;;;;88.22;57.40;;;180.10;2252.80;;;;;;5050253;28;20091;-59
2021/12/01 06:31:46;;;;;;;292.35;185.35;;;205.10;2252.80;;;;;;5049895;28;20043;-58
2021/12/01 06:34:11;;;;;;;415.33;291.38;;;205.10;2252.80;;;;;;5049901;28;20066;-59
2021/12/01 06:36:37;;;;;;;122.90;80.85;;;205.30;2252.80;;;;;;5049854;28;20028;-60
2021/12/01 06:39:05;;;;;;;106.05;59.85;;;205.40;2252.80;;;;;;5049835;28;20023;-59
2021/12/01 06:41:31;;;;;;;103.85;66.80;;;205.60;2252.80;;;;;;5049971;28;20033;-57
2021/12/01 06:43:57;;;;;;;121.43;84.57;;;205.50;2252.80;;;;;;5049634;28;20021;-59
2021/12/01 06:46:23;;;;;;;121.38;72.70;;;205.70;2252.80;;;;;;5049819;28;20539;-59
2021/12/01 06:48:49;;;;;;;116.18;73.53;;;230.60;2252.80;;;;;;5050220;28;20027;-59
2021/12/01 06:51:15;;;;;;;142.35;90.90;;;205.60;2252.80;;;;;;5049603;28;20029;-60
2021/12/01 06:53:41;;;;;;;188.38;124.60;;;205.70;2252.80;;;;;;5049974;28;20028;-60
2021/12/01 06:56:08;;;;;;;137.57;87.28;;;230.40;2252.80;;;;;;5049707;28;20033;-59
2021/12/01 06:58:34;;;;;;;189.73;119.35;;;205.70;2252.80;;;;;;5049470;28;20025;-58
2021/12/01 07:01:00;;;;;;;203.63;131.45;;;230.40;2252.80;;;;;;5049472;28;20053;-57
2021/12/01 07:03:26;;;;;;;225.02;154.25;;;230.50;2252.80;;;;;;5049660;28;20025;-59
2021/12/01 07:05:51;;;;;;;244.75;164.95;;;230.60;2252.80;;;;;;5049716;28;20040;-58
2021/12/01 07:08:17;;;;;;;187.55;124.38;;;230.60;2252.80;;;;;;5049527;28;20021;-59
2021/12/01 07:10:43;;;;;;;159.27;107.60;;;230.60;2252.80;;;;;;5049520;28;20021;-59
2021/12/01 07:13:09;;;;;;;166.95;108.32;;;230.80;2252.80;;;;;;5049581;28;20376;-58
2021/12/01 07:15:34;;;;;;;167.57;112.05;;;230.90;2252.80;;;;;;5049589;28;20025;-60
2021/12/01 07:18:00;;;;;;;194.63;129.52;;;231.00;2252.80;;;;;;5049691;28;20448;-59
2021/12/01 07:20:26;;;;;;;132.65;90.90;;;231.20;2252.80;;;;;;5050257;28;20025;-59
2021/12/01 07:22:52;;;;;;;81.05;55.95;;;231.00;2252.80;;;;;;5053522;28;20456;-59
2021/12/01 07:25:17;;;;;;;88.22;56.13;;;230.90;2252.80;;;;;;5053214;28;20036;-59
2021/12/01 07:27:43;;;;;;;87.88;53.40;;;231.10;2252.80;;;;;;5035458;28;20472;-59
2021/12/01 07:30:10;;;;;;;91.07;60.97;;;231.10;2252.80;;;;;;5052988;28;20043;-59
2021/12/01 07:32:36;;;;;;;103.53;66.50;;;256.00;2252.80;;;;;;5052977;28;20483;-59
2021/12/01 07:35:02;;;;;;;85.68;57.53;;;256.20;2252.80;;;;;;5053290;28;20074;-59
2021/12/01 07:37:28;;;;;;;148.18;102.30;;;256.10;2252.80;;;;;;5053028;28;20068;-59
2021/12/01 07:39:53;;;;;;;155.13;104.13;;;256.00;2252.80;;;;;;5052976;28;20437;-61
2021/12/01 07:42:19;;;;;;;202.68;138.63;;;256.00;2252.80;;;;;;5053246;28;20025;-58
2021/12/01 07:44:45;;;;;;;204.50;140.10;;;231.20;2252.80;;;;;;5052810;28;20041;-59
2021/12/01 07:47:11;;;;;;;152.60;104.72;;;231.30;2252.80;;;;;;5051230;28;20036;-59
2021/12/01 07:49:38;;;;;;;161.60;112.60;;;231.20;2252.80;;;;;;5042992;28;20053;-59
2021/12/01 07:52:05;;;;;;;175.43;109.60;;;256.00;2252.80;;;;;;5033084;28;20079;-58
2021/12/01 07:54:31;;;;;;;150.35;106.63;;;256.10;2252.80;;;;;;5033138;28;20053;-59
2021/12/01 07:56:58;;;;;;;164.30;115.90;;;256.10;2252.80;;;;;;5032701;28;20033;-60
2021/12/01 07:59:24;;;;;;;165.60;110.82;;;256.10;2252.80;;;;;;5032253;28;20033;-60
2021/12/01 08:01:50;;;;;;;218.60;160.15;;;256.40;2252.80;;;;;;5033300;28;20036;-59
2021/12/01 08:04:16;;;;;;;193.57;138.48;;;256.90;2252.80;;;;;;5032747;28;20049;-61
2021/12/01 08:06:45;;;;;;;194.45;133.25;;;282.00;2252.80;;;;;;5032774;28;20025;-61
2021/12/01 08:09:11;;;;;;;410.15;254.25;;;307.30;2150.40;;;;;;5032786;28;20029;-60
2021/12/01 08:11:38;;;;;;;443.50;299.73;;;308.00;2073.60;;;;;;5032404;28;20033;-60
2021/12/01 08:14:06;;;;;;;496.02;387.08;;;333.10;2073.60;;;;;;5032411;28;20032;-60
2021/12/01 08:16:33;;;;;;;454.33;349.05;;;333.50;2073.60;;;;;;5032674;28;20021;-60
2021/12/01 08:18:58;;;;;;;444.42;349.35;;;358.70;2022.40;;;;;;5032728;28;20029;-60
2021/12/01 08:21:24;;;;;;;444.70;340.65;;;358.90;1971.20;;;;;;5032591;28;20383;-61
2021/12/01 08:23:51;;;;;;;413.63;313.73;;;358.40;2022.40;;;;;;5032518;28;20037;-59
2021/12/01 08:26:18;;;;;;;367.10;268.75;;;332.80;2124.80;;;;;;5032244;28;20061;-60
2021/12/01 08:28:47;;;;;;;381.38;281.52;;;307.50;2150.40;;;;;;5032132;28;20029;-60
2021/12/01 08:31:14;;;;;;;476.17;382.65;;;307.60;2150.40;;;;;;5032041;28;20087;-61
2021/12/01 08:33:41;;;;;;;474.27;372.73;;;332.80;2176.00;;;;;;5032381;28;20028;-60
2021/12/01 08:36:07;;;;;;;421.80;324.05;;;359.10;2048.00;;;;;;5032001;28;20438;-61
2021/12/01 08:38:33;;;;;;;387.98;311.60;;;410.30;1894.40;;;;;;5032293;28;20052;-62
2021/12/01 08:40:59;;;;;;;387.70;329.13;;;436.00;1766.40;;;;;;5032220;28;20025;-61
2021/12/01 08:43:25;;;;;;;354.63;297.75;;;486.70;1664.00;;;;;;5031706;28;20160;-61
2021/12/01 08:45:51;;;;;;;153.40;135.75;;;486.90;1612.80;;;;;;5032143;28;20549;-61
2021/12/01 08:48:17;;;;;;;320.77;285.58;;;512.20;1484.80;;;;;;5031847;28;20026;-57
2021/12/01 08:50:43;;;;;;;271.38;241.68;;;538.20;1484.80;;;;;;5032147;28;20025;-57
2021/12/01 08:53:09;;;;;;;231.95;205.93;;;538.50;1433.60;;;;;;5032152;28;20052;-56
2021/12/01 08:55:37;;;;;;;217.23;193.77;;;512.80;1433.60;;;;;;5031520;28;20026;-56
2021/12/01 08:58:03;;;;;;;221.07;196.82;;;563.50;1433.60;;;;;;5031875;28;20017;-59
2021/12/01 09:00:33;;;;;;;203.85;182.18;;;564.10;1382.40;;;;;;5031437;28;20056;-57
2021/12/01 09:02:58;;;;;;;233.82;209.27;;;589.10;1305.60;;;;;;5031714;28;20037;-56
2021/12/01 09:05:24;;;;;;;43.70;31.42;;;589.10;1254.40;;;;;;5031593;28;20035;-57
2021/12/01 09:07:50;;;;;;;52.42;41.95;;;563.50;1305.60;;;;;;5031683;28;20521;-57
2021/12/01 09:10:16;;;;;;;28.10;23.13;;;538.10;1305.60;;;;;;5031524;28;20049;-57
2021/12/01 09:12:43;;;;;;;9.15;6.85;;;538.50;1280.00;;;;;;5031575;28;20435;-58
2021/12/01 09:15:09;;;;;;;13.75;6.65;;;563.50;1254.40;;;;;;5031535;28;20028;-61
2021/12/01 09:17:35;;;;;;;12.35;10.85;;;563.70;1254.40;;;;;;5031527;28;20048;-63
2021/12/01 09:20:03;;;;;;;8.30;7.10;;;564.10;1254.40;;;;;;5031378;28;20531;-61
2021/12/01 09:22:29;;;;;;;10.02;8.00;;;589.00;1203.20;;;;;;5031544;28;20438;-58
2021/12/01 09:24:54;;;;;;;17.15;9.93;;;588.80;1203.20;;;;;;5031029;28;20040;-58
2021/12/01 09:27:20;;;;;;;6.28;4.30;;;564.10;1228.80;;;;;;5031476;28;20044;-57
2021/12/01 09:29:46;;;;;;;20.45;15.10;;;563.40;1203.20;;;;;;5030837;28;20476;-58
2021/12/01 09:32:12;;;;;;;8.52;5.60;;;512.70;1254.40;;;;;;5031371;28;20457;-59
2021/12/01 09:34:40;;;;;;;9.25;5.68;;;512.10;1280.00;;;;;;5031134;28;20034;-57
2021/12/01 09:37:06;;;;;;;22.15;15.60;;;486.80;1305.60;;;;;;5030813;28;20025;-57
2021/12/01 09:39:33;;;;;;;96.25;68.25;;;461.50;1382.40;;;;;;5031100;28;20037;-60
2021/12/01 09:42:00;;;;;;;78.85;52.78;;;460.80;1408.00;;;;;;5031082;28;20175;-60
2021/12/01 09:44:25;;;;;;;114.65;77.70;;;435.30;1433.60;;;;;;5030100;28;20033;-62
2021/12/01 09:46:51;;;;;;;161.95;115.22;;;409.90;1536.00;;;;;;5031082;28;20033;-60
2021/12/01 09:49:18;;;;;;;124.32;95.18;;;384.60;1664.00;;;;;;5030643;28;20029;-62
2021/12/01 09:51:44;;;;;;;132.52;94.93;;;384.40;1689.60;;;;;;5030811;28;20109;-60
2021/12/01 09:54:10;;;;;;;53.65;41.40;;;384.10;1740.80;;;;;;5030968;28;20083;-59
2021/12/01 09:56:36;;;;;;;17.45;12.35;;;384.00;1638.40;;;;;;5030668;28;20025;-57
2021/12/01 09:59:02;;;;;;;24.30;13.48;;;384.10;1638.40;;;;;;5030548;28;20025;-61
2021/12/01 10:01:29;;;;;;;9.43;6.03;;;384.10;1638.40;;;;;;5030332;28;20492;-62
2021/12/01 10:03:55;;;;;;;15.07;11.43;;;384.10;1638.40;;;;;;5030594;28;20033;-59
2021/12/01 10:06:23;;;;;;;14.07;11.82;;;384.10;1638.40;;;;;;5030673;28;20154;-61
2021/12/01 10:08:54;;;;;;;18.83;13.68;;;384.10;1638.40;;;;;;5030621;28;20083;-58
2021/12/01 10:11:31;;;;;;;27.10;21.02;;;384.10;1638.40;;;;;;5030625;28;20060;-59
2021/12/01 10:14:03;;;;;;;7.50;5.55;;;384.10;1664.00;;;;;;5030150;28;20510;-56
2021/12/01 10:16:32;;;;;;;13.45;8.73;;;384.00;1689.60;;;;;;5030362;28;20036;-58
2021/12/01 10:19:02;;;;;;;15.80;10.77;;;384.10;1664.00;;;;;;5030014;28;20029;-57
2021/12/01 10:21:39;;;;;;;41.45;32.90;;;384.00;1689.60;;;;;;5030021;28;20071;-61
2021/12/01 10:24:08;;;;;;;19.02;12.25;;;359.20;1664.00;;;;;;5029821;28;20558;-58
2021/12/01 10:26:40;;;;;;;18.23;12.98;;;359.00;1689.60;;;;;;5029974;28;20029;-56
2021/12/01 10:29:09;;;;;;;22.35;16.10;;;359.00;1715.20;;;;;;5029933;28;20116;-56
2021/12/01 10:31:45;;;;;;;10.68;8.85;;;358.80;1715.20;;;;;;5029960;28;20061;-59
2021/12/01 10:34:31;;;;;;;21.02;18.88;;;358.80;1715.20;;;;;;5030090;28;20083;-61
2021/12/01 10:37:27;;;;;;;14.50;10.65;;;358.80;1715.20;;;;;;5029800;28;20021;-60
2021/12/01 10:40:12;;;;;;;15.20;10.55;;;358.60;1715.20;;;;;;5028019;28;20037;-59
2021/12/01 10:43:04;;;;;;;12.63;9.52;;;358.60;1740.80;;;;;;5027687;28;20427;-59
2021/12/01 10:45:40;;;;;;;23.10;14.45;;;358.70;1740.80;;;;;;5026111;28;20124;-62
2021/12/01 10:48:09;;;;;;;17.65;11.38;;;358.70;1766.40;;;;;;5027535;28;20022;-58
2021/12/01 10:50:39;;;;;;;20.58;14.52;;;358.60;1766.40;;;;;;5027749;28;20076;-57
2021/12/01 10:53:11;;;;;;;24.25;16.17;;;358.70;1766.40;;;;;;5027747;28;20026;-57
2021/12/01 10:55:51;;;;;;;19.10;13.32;;;358.80;1766.40;;;;;;5028657;28;20029;-56
2021/12/01 10:58:18;;;;;;;26.05;11.45;;;358.80;1766.40;;;;;;5031590;28;20400;-57
2021/12/01 11:00:46;;;;;;;23.75;17.10;;;358.80;1740.80;;;;;;5031531;28;20076;-56
2021/12/01 11:03:21;;;;;;;24.25;17.42;;;358.80;1740.80;;;;;;5031873;28;20038;-59
2021/12/01 11:05:55;;;;;;;30.52;21.45;;;358.80;1740.80;;;;;;5031479;28;20397;-60
2021/12/01 11:08:26;;;;;;;22.23;15.73;;;358.80;1766.40;;;;;;5031938;28;20176;-56
2021/12/01 11:11:13;;;;;;;34.13;22.23;;;358.80;1740.80;;;;;;5031765;28;20048;-56
2021/12/01 11:13:44;;;;;;;44.63;24.05;;;358.90;1740.80;;;;;;5031685;28;20542;-58
2021/12/01 11:16:12;;;;;;;23.90;16.60;;;358.90;1740.80;;;;;;5032197;28;20041;-56
2021/12/01 11:18:40;;;;;;;18.33;11.63;;;358.90;1766.40;;;;;;5033512;28;20082;-56
2021/12/01 11:21:10;;;;;;;19.98;10.93;;;358.90;1766.40;;;;;;5033422;28;20546;-57
2021/12/01 11:23:50;;;;;;;12.35;8.25;;;359.00;1740.80;;;;;;5033352;28;20387;-56
2021/12/01 11:26:19;;;;;;;15.65;9.65;;;359.00;1740.80;;;;;;5033417;28;20025;-62
2021/12/01 11:28:47;;;;;;;17.65;9.52;;;359.00;1740.80;;;;;;5033188;28;20387;-60
2021/12/01 11:31:21;;;;;;;16.48;8.68;;;359.00;1766.40;;;;;;5033367;28;20068;-54
2021/12/01 11:33:49;;;;;;;18.77;9.10;;;359.10;1766.40;;;;;;5031962;28;20030;-58
2021/12/01 11:36:18;;;;;;;23.08;11.98;;;359.10;1740.80;;;;;;5033356;28;20068;-58
2021/12/01 11:38:49;;;;;;;22.23;10.50;;;359.00;1715.20;;;;;;5033261;28;20116;-56
2021/12/01 11:41:15;;;;;;;16.80;10.20;;;359.00;1664.00;;;;;;5032990;28;20025;-56
2021/12/01 11:43:42;;;;;;;11.15;5.95;;;359.10;1664.00;;;;;;5033218;28;20017;-56
2021/12/01 11:46:09;;;;;;;8.15;3.88;;;359.00;1664.00;;;;;;5033343;28;20029;-56
2021/12/01 11:48:39;;;;;;;12.05;6.00;;;359.00;1638.40;;;;;;5032969;28;20095;-56
2021/12/01 11:51:32;;;;;;;9.50;5.35;;;359.00;1664.00;;;;;;5033117;28;20080;-56
2021/12/01 11:54:19;;;;;;;21.95;10.15;;;359.00;1664.00;;;;;;5030773;28;20038;-58
2021/12/01 11:56:55;;;;;;;5.97;3.70;;;359.00;1689.60;;;;;;5030589;28;20022;-56
2021/12/01 11:59:24;;;;;;;14.63;6.88;;;359.00;1664.00;;;;;;5030551;28;20046;-56
2021/12/01 12:01:59;;;;;;;15.55;9.85;;;358.90;1664.00;;;;;;5030890;28;20029;-59